Kenton, OK

8:26 PM CDT on July 30, 2014 (GMT -0500)
Dalhart Municipal (KDHT) Elev 3990 ft | 36.03 °N, 102.55 °W | Change Station

Current weather conditions updated 33 minutes ago

Overcast
Overcast
67 °F
Feels Like 67 °F
N
14
Wind Variable Wind from NE

Tomorrow is forecast to be nearly the same temperature as today.

Today
High -- | Low -- °F
--% Chance of Precip.
Yesterday
High -- | Low -- °F
Precip. -- in
6:55 AM 9:00 PM
Waxing Crescent, 15% visible
Pressure 30.09 in
Visibility 10.0 miles
Clouds Overcast 3100 ft
Dew Point 59 °F
Humidity 76%
Rainfall 0.00 in
Snow Depth Not available.
UV 0 out of 12
Pollen .50 out of 12
Air Quality Not available.
Flu Activity Not available.
METAR KDHT 310053Z AUTO 04012KT 10SM OVC031 19/15 A3023 RMK AO2 SLP190 T01940150

More Conditions Fewer Conditions

Pressure 30.09 in
Visibility 10.0 miles
Clouds Overcast 3100 ft
Dew Point 59 °F
Humidity 76%
Rainfall 0.00 in
Snow Depth Not available.
UV 0 out of 12
Pollen .50 out of 12
Air Quality Not available.
Flu Activity Not available.
METAR KDHT 310053Z AUTO 04012KT 10SM OVC031 19/15 A3023 RMK AO2 SLP190 T01940150

More Conditions Fewer Conditions

10-Day Weather Forecast

Almanac

Astronomy

Jul. 30, 2014 Rise Set
Actual Time 6:55 AM CDT 9:00 PM CDT
Civil Twilight 6:26 AM CDT 9:28 PM CDT
Nautical Twilight 5:51 AM CDT 10:03 PM CDT
Astronomical Twilight 5:13 AM CDT 10:41 PM CDT
Moon 10:22 AM CDT (7/30) 10:50 PM CDT (7/30)
Length of Visible Light 15h 02m
Length of Day
14h 04m
Tomorrow will be 1m 43s shorter.
Waxing Crescent, 15% of the Moon is Illuminated
Today
Waxing Crescent
Aug 3
First Quarter
Aug 10
Full
Aug 17
Last Quarter
Aug 25
New

Today's Extremes

State Highs State Lows

Community

WunderPhotos

Upload Photos

1,739,262 photos uploaded!

Nearby

Snow Depth

Station Depth Elevation
No new snow has been reported.

Earthquake Activity

City Distance Mag. Time & Date
No recent earthquake activity has been reported nearby.
Minimum magnitude displayed is 2.5.

Coastal Water Temperatures

Place Temperature
No Stations Reporting

Nearby Weather Stations

Station Location Temp. Dew Point Humidity Wind Precip. Elev Updated Type
RAWS UTE CANYON CO, Campo, CO 64 °F 58 °F 80% NE  at  15 mph 0.00 in / hr 4372 ft 5:59 PM MDT MADIS

Show More Stations Show Fewer Stations